1982 ABIGAIL (1982022S26154)


On this page: IBTrACS data - Map and Plots - Positions - Intensities - Original source data

Summary

Start Jan 22
End Feb 7
Basin SP
LMI 100 kt
Sources jtwc_sh
bom
wellington
td9636
neumann
In WMO? Yes
Previous storm 1982 ERROL (SI)
Previous in basin 1982 BRUNO (SP)
Concurrent storms 1982 CHRIS (SI)
1982 BRUNO (SP)
1982 ABIGAIL (SP)
1982 HETTIE (SP)
1982 GRAHAM (SI)
1982 ELECTRE (SI)
1982 FRIDA (SI)
1982 CORAL (SP)
1982 GABRIELLE (SI)
Next in basin 1982 HETTIE (SP)
Next storm 1982 HETTIE (SP)

top of page IBTrACS Data: File Access

top of page HURSAT Data: File Access

Image of storm

top of page Plots:

Map of storm track will not appear if FTP is down
Time series of cyclone Maximum Sustained Wind will not appear if FTP is down
Time series of cyclone Minimum Central Pressure will not appear if FTP is down

top of page Track Data:Position

jtwc_sh bom wellington td9636 neumann
Date Lat Lon Lat Lon Lat Lon Lat Lon Lat Lon
1982-01-22 00:00:00 -25.7 154.3 -25.7 154.3
1982-01-22 06:00:00 -25.0 155.0 -25.0 155.0
1982-01-22 12:00:00 -24.0 155.6 -24.0 155.6
1982-01-22 18:00:00 -23.2 156.0 -23.2 156.0
1982-01-23 00:00:00 -22.3 156.2 -22.0 155.7 -22.3 156.2
1982-01-23 06:00:00 -21.2 156.2 -20.1 154.7 -21.2 156.2
1982-01-23 12:00:00 -20.0 155.9 -18.6 154.0 -20.0 155.9
1982-01-23 18:00:00 -19.1 155.3 -17.8 153.8 -19.1 155.3
1982-01-24 00:00:00 -18.3 154.7 -17.5 153.8 -18.3 154.7
1982-01-24 06:00:00 -17.7 154.2 -17.3 153.8 -17.7 154.2
1982-01-24 12:00:00 -17.2 153.8 -17.2 153.9 -17.2 153.8
1982-01-24 18:00:00 -16.9 153.6 -17.1 154.0 -16.9 153.6
1982-01-25 00:00:00 -17.0 153.5 -17.2 154.1 -17.0 153.5
1982-01-25 06:00:00 -17.5 153.7 -17.4 154.2 -17.5 153.7
1982-01-25 12:00:00 -17.9 154.0 -17.8 154.4 -17.9 154.0
1982-01-25 18:00:00 -18.0 154.1 -18.2 154.4 -18.1 154.6 -18.0 154.1 -18.2 154.4
1982-01-26 00:00:00 -19.1 154.8 -18.8 154.9 -18.5 155.0 -19.0 154.8 -18.8 154.9
1982-01-26 06:00:00 -19.7 155.7 -19.5 155.8 -19.0 155.6 -19.7 155.7 -19.5 155.8
1982-01-26 12:00:00 -19.9 156.7 -19.8 157.0 -19.5 156.5 -20.0 156.8 -19.8 157.0
1982-01-26 18:00:00 -20.1 157.8 -19.8 157.8 -19.7 157.6 -20.1 157.8 -19.8 157.8
1982-01-27 00:00:00 -20.4 158.6 -19.8 158.5 -19.8 158.6 -20.4 158.6 -19.8 158.5
1982-01-27 06:00:00 -20.7 159.1 -20.0 159.2 -20.2 159.5 -20.7 159.1 -20.0 159.2
1982-01-27 12:00:00 -21.0 159.5 -20.5 159.9 -20.6 160.0 -21.0 159.5 -20.5 159.9
1982-01-27 18:00:00 -21.2 159.6 -21.0 160.0 -21.0 160.2 -21.2 159.6 -21.0 160.0
1982-01-28 00:00:00 -21.5 159.5 -21.4 160.0 -21.4 160.0 -21.5 159.6 -21.4 160.0
jtwc_sh bom wellington td9636 neumann
1982-01-28 06:00:00 -21.8 159.4 -21.8 159.9 -21.6 159.7 -21.8 159.4 -21.8 159.9
1982-01-28 12:00:00 -22.0 159.2 -22.0 159.7 -21.7 159.2 -22.0 159.3 -22.0 159.7
1982-01-28 18:00:00 -22.0 158.9 -21.9 159.3 -21.7 158.6 -22.0 158.9 -21.9 159.3
1982-01-29 00:00:00 -21.9 158.1 -21.4 158.7 -21.5 157.9 -22.0 158.1 -21.4 158.7
1982-01-29 06:00:00 -21.7 157.3 -20.8 158.0 -21.0 157.2 -21.7 157.3 -20.8 158.0
1982-01-29 12:00:00 -20.9 156.9 -20.0 157.0 -20.4 156.6 -20.9 156.9 -20.0 157.0
1982-01-29 18:00:00 -20.1 156.7 -19.2 156.7 -19.8 156.3 -20.1 156.7 -19.2 156.7
1982-01-30 00:00:00 -19.9 156.7 -18.7 156.4 -19.2 156.2 -19.9 156.7 -18.7 156.4
1982-01-30 06:00:00 -19.7 156.8 -18.5 155.6 -18.8 156.2 -19.7 156.8 -18.5 155.6
1982-01-30 12:00:00 -19.2 156.7 -18.3 155.7 -18.5 156.3 -19.2 156.7 -18.3 155.7
1982-01-30 18:00:00 -18.6 156.7 -18.2 156.3 -18.2 156.5 -18.6 156.7 -18.2 156.3
1982-01-31 00:00:00 -18.1 156.8 -17.8 156.7 -17.9 156.8 -18.0 156.8 -17.8 156.7
1982-01-31 06:00:00 -17.5 157.1 -17.6 157.3 -17.7 157.1 -17.5 157.1 -17.6 157.3
1982-01-31 12:00:00 -17.2 157.6 -17.5 157.9 -17.5 157.5 -17.3 157.6 -17.5 157.9
1982-01-31 18:00:00 -17.2 158.3 -17.5 158.4 -17.4 157.9 -17.2 158.3 -17.5 158.4
1982-02-01 00:00:00 -17.1 159.0 -17.3 159.0 -17.3 158.4 -17.1 159.0 -17.3 159.0
1982-02-01 06:00:00 -17.2 159.7 -17.3 159.5 -17.3 159.2 -17.2 159.7 -17.3 159.5
1982-02-01 12:00:00 -17.5 160.5 -17.3 160.0 -17.5 160.0 -17.5 160.5 -17.3 160.0
1982-02-01 18:00:00 -18.0 161.2 -17.8 160.6 -17.8 160.7 -18.0 161.2 -17.8 160.6
1982-02-02 00:00:00 -18.6 161.6 -18.4 161.1 -18.3 161.3 -18.6 161.6 -18.4 161.1
1982-02-02 06:00:00 -19.2 161.8 -19.1 161.6 -19.0 161.7 -19.2 161.8 -19.1 161.6
1982-02-02 12:00:00 -19.8 162.0 -19.9 162.1 -19.9 162.0 -19.8 162.0 -19.9 162.1
1982-02-02 18:00:00 -20.5 162.2 -20.7 162.2 -20.9 162.1 -20.5 162.2 -20.7 162.2
1982-02-03 00:00:00 -21.4 162.3 -21.5 162.4 -21.7 162.2 -21.4 162.2 -21.5 162.4
jtwc_sh bom wellington td9636 neumann
1982-02-03 06:00:00 -22.3 162.3 -22.3 162.6 -22.2 162.3 -22.3 162.3 -22.3 162.6
1982-02-03 12:00:00 -23.1 162.5 -23.0 162.7 -22.6 162.4 -23.1 162.5 -23.0 162.7
1982-02-03 18:00:00 -23.8 162.8 -24.0 162.8 -23.2 162.5 -23.8 162.8 -24.0 162.8
1982-02-04 00:00:00 -24.6 163.2 -25.0 163.0 -24.0 162.8 -24.7 163.2 -25.0 163.0
1982-02-04 06:00:00 -25.4 163.8 -25.7 163.7 -24.9 163.3 -25.4 163.8 -25.7 163.7
1982-02-04 12:00:00 -25.8 164.6 -25.9 164.7 -25.6 164.1 -25.7 164.6 -25.9 164.7
1982-02-04 18:00:00 -25.8 165.5 -26.0 165.5 -25.8 165.2 -25.8 165.5 -26.0 165.5
1982-02-05 00:00:00 -25.8 166.5 -26.2 166.5 -25.6 166.5 -25.8 166.4 -26.2 166.5
1982-02-05 06:00:00 -25.6 167.5 -25.3 168.0 -25.6 167.5 -25.6 167.5
1982-02-05 12:00:00 -25.2 168.7 -24.9 169.5 -25.2 168.7 -25.2 168.7
1982-02-05 18:00:00 -24.9 170.0 -24.3 171.1 -24.9 170.0 -24.9 170.0
1982-02-06 00:00:00 -24.7 171.1 -23.7 172.5 -24.7 171.1 -24.7 171.1
1982-02-06 06:00:00 -24.7 172.2 -23.1 173.6 -24.7 172.2 -24.7 172.2
1982-02-06 12:00:00 -22.6 174.5
1982-02-06 18:00:00 -22.2 175.2
1982-02-07 00:00:00 -21.7 175.7
1982-02-07 06:00:00 -21.1 176.3
1982-02-07 12:00:00 -20.5 177.0

top of pageTrack Data:Intensity

jtwc_sh bom wellington td9636 neumann
Date Wind Pres Wind Pres Wind Pres Wind Pres Wind Pres
1982-01-22 00:00:00 1007. 15. 1007.
1982-01-22 06:00:00 1006. 15. 1006.
1982-01-22 12:00:00 1006. 15. 1006.
1982-01-22 18:00:00 1005. 20. 1005.
1982-01-23 00:00:00 1005. 30. 997. 20. 1005.
1982-01-23 06:00:00 1003. 30. 997. 25. 1003.
1982-01-23 12:00:00 1002. 30. 997. 25. 1002.
1982-01-23 18:00:00 1001. 30. 997. 25. 1001.
1982-01-24 00:00:00 1000. 30. 997. 30. 1000.
1982-01-24 06:00:00 1000. 30. 997. 30. 1000.
1982-01-24 12:00:00 1000. 30. 997. 30. 1000.
1982-01-24 18:00:00 999. 30. 997. 30. 999.
1982-01-25 00:00:00 998. 30. 997. 35. 998.
1982-01-25 06:00:00 997. 30. 997. 35. 997.
1982-01-25 12:00:00 996. 35. 995. 35. 996.
1982-01-25 18:00:00 25. 995. 35. 995. 25. 40. 995.
1982-01-26 00:00:00 25. 995. 40. 990. 25. 40. 995.
1982-01-26 06:00:00 25. 994. 40. 990. 25. 40. 994.
1982-01-26 12:00:00 30. 993. 45. 987. 25. 40. 993.
1982-01-26 18:00:00 35. 988. 45. 987. 35. 50. 988.
1982-01-27 00:00:00 40. 984. 50. 985. 35. 55. 984.
1982-01-27 06:00:00 40. 984. 50. 985. 40. 55. 984.
1982-01-27 12:00:00 40. 985. 50. 985. 40. 55. 985.
1982-01-27 18:00:00 40. 982. 50. 985. 40. 60. 982.
1982-01-28 00:00:00 40. 980. 45. 987. 40. 60. 980.
jtwc_sh bom wellington td9636 neumann
1982-01-28 06:00:00 40. 982. 45. 987. 40. 60. 982.
1982-01-28 12:00:00 40. 985. 40. 990. 40. 55. 985.
1982-01-28 18:00:00 40. 986. 40. 990. 40. 55. 986.
1982-01-29 00:00:00 40. 987. 40. 990. 40. 50. 987.
1982-01-29 06:00:00 35. 987. 40. 990. 35. 50. 987.
1982-01-29 12:00:00 35. 988. 45. 987. 35. 50. 988.
1982-01-29 18:00:00 40. 988. 45. 987. 40. 50. 988.
1982-01-30 00:00:00 40. 988. 50. 985. 40. 50. 988.
1982-01-30 06:00:00 40. 987. 50. 985. 40. 50. 987.
1982-01-30 12:00:00 40. 987. 50. 985. 40. 50. 987.
1982-01-30 18:00:00 40. 986. 50. 985. 40. 55. 986.
1982-01-31 00:00:00 35. 985. 55. 980. 40. 55. 985.
1982-01-31 06:00:00 35. 985. 55. 980. 35. 55. 985.
1982-01-31 12:00:00 40. 985. 55. 980. 35. 55. 985.
1982-01-31 18:00:00 45. 982. 55. 980. 45. 60. 982.
1982-02-01 00:00:00 45. 982. 55. 980. 45. 60. 982.
1982-02-01 06:00:00 50. 979. 55. 980. 50. 65. 979.
1982-02-01 12:00:00 50. 975. 60. 975. 50. 70. 975.
1982-02-01 18:00:00 55. 969. 60. 975. 55. 75. 969.
1982-02-02 00:00:00 55. 965. 65. 970. 55. 80. 965.
1982-02-02 06:00:00 50. 961. 65. 970. 50. 85. 961.
1982-02-02 12:00:00 55. 957. 70. 965. 50. 90. 957.
1982-02-02 18:00:00 60. 951. 70. 965. 60. 100. 951.
1982-02-03 00:00:00 65. 947. 70. 965. 60. 100. 947.
jtwc_sh bom wellington td9636 neumann
1982-02-03 06:00:00 65. 950. 70. 965. 65. 100. 950.
1982-02-03 12:00:00 65. 956. 65. 970. 65. 90. 956.
1982-02-03 18:00:00 60. 964. 65. 970. 60. 80. 964.
1982-02-04 00:00:00 50. 972. 55. 980. 60. 70. 972.
1982-02-04 06:00:00 45. 975. 55. 980. 45. 70. 975.
1982-02-04 12:00:00 45. 979. 45. 987. 45. 65. 979.
1982-02-04 18:00:00 40. 980. 45. 987. 40. 60. 980.
1982-02-05 00:00:00 40. 982. 40. 990. 40. 60. 982.
1982-02-05 06:00:00 35. 40. 990. 35. 55.
1982-02-05 12:00:00 35. 40. 990. 35. 45.
1982-02-05 18:00:00 30. 40. 990. 30. 35.
1982-02-06 00:00:00 30. 35. 995. 30. 30.
1982-02-06 06:00:00 25. 35. 995. 25. 25.
1982-02-06 12:00:00 30. 997.
1982-02-06 18:00:00 30. 997.
1982-02-07 00:00:00 30. 997.
1982-02-07 06:00:00 30. 997.
1982-02-07 12:00:00 30. 997.

top of page Links to source data

Source Source file Format
jtwc_sh bsh141982.txt ATCF
bom Newcyclonedatabase-08repair.csv:Line=12359:ABIGAIL CSV file (from Excel file)
wellington TC_BT_1967_2006.csv:Line=1636:ABIGAIL Text table
td9636 cons_worldwide_trop_cyclone_18710101-19891231-006:Line=11398 TD 9636
neumann tracks.sh:Storm=636:ABIGAIL:BSH1482:BM718&JTWC HURDAT